createdAt,value
2022-08-16T00:02:30.504Z,20.10
2022-08-16T00:05:07.270Z,20.10
2022-08-16T00:07:40.918Z,20.10
2022-08-16T00:10:20.986Z,20.10
2022-08-16T00:12:55.192Z,20.10
2022-08-16T00:15:51.576Z,20.10
2022-08-16T00:18:29.698Z,20.00
2022-08-16T00:21:03.819Z,20.00
2022-08-16T00:23:40.169Z,20.00
2022-08-16T00:26:34.592Z,20.00
2022-08-16T00:29:11.890Z,20.00
2022-08-16T00:32:01.321Z,19.90
2022-08-16T00:34:44.139Z,19.90
2022-08-16T00:37:56.157Z,19.80
2022-08-16T00:40:34.290Z,19.80
2022-08-16T00:43:16.922Z,19.70
2022-08-16T00:46:34.087Z,19.70
2022-08-16T00:49:17.594Z,19.70
2022-08-16T00:51:55.269Z,19.70
2022-08-16T00:54:32.965Z,19.60
2022-08-16T00:57:07.284Z,19.60
2022-08-16T00:59:52.858Z,19.70
2022-08-16T01:02:31.492Z,19.70
2022-08-16T01:05:11.132Z,19.70
2022-08-16T01:07:51.773Z,19.60
2022-08-16T01:10:31.848Z,19.50
2022-08-16T01:13:15.767Z,19.40
2022-08-16T01:15:56.013Z,19.40
2022-08-16T01:18:39.848Z,19.30
2022-08-16T01:21:36.255Z,19.20
2022-08-16T01:24:53.456Z,19.30
2022-08-16T01:27:21.730Z,19.40
2022-08-16T01:30:20.182Z,19.30
2022-08-16T01:33:15.135Z,19.30
2022-08-16T01:35:57.685Z,19.20
2022-08-16T01:38:38.118Z,19.20
2022-08-16T01:44:10.097Z,19.20
2022-08-16T01:46:46.668Z,19.10
2022-08-16T01:50:40.614Z,19.10
2022-08-16T01:52:30.566Z,19.10
2022-08-16T01:55:24.186Z,19.10
2022-08-16T01:58:00.166Z,19.00
2022-08-16T02:00:33.818Z,18.90
2022-08-16T02:03:07.111Z,18.80
2022-08-16T02:05:51.737Z,18.80
2022-08-16T02:08:33.069Z,18.70
2022-08-16T02:11:09.624Z,18.70
2022-08-16T02:13:44.076Z,18.70
2022-08-16T02:16:21.607Z,18.70
2022-08-16T02:18:54.770Z,18.70
2022-08-16T02:21:31.447Z,18.70
2022-08-16T02:24:30.720Z,18.60
2022-08-16T02:26:58.316Z,18.60
2022-08-16T02:29:32.863Z,18.60
2022-08-16T02:32:50.365Z,18.50
2022-08-16T02:34:59.942Z,18.60
2022-08-16T02:37:44.739Z,18.60
2022-08-16T02:40:27.917Z,18.60
2022-08-16T02:43:02.759Z,18.70
2022-08-16T02:45:36.544Z,18.60
2022-08-16T02:48:28.298Z,18.50
2022-08-16T02:51:11.246Z,18.40
2022-08-16T02:56:22.173Z,18.10
2022-08-16T02:58:57.450Z,18.10
2022-08-16T03:01:33.782Z,18.10
2022-08-16T03:04:50.610Z,18.10
2022-08-16T03:07:28.012Z,18.10
2022-08-16T03:10:02.344Z,18.10
2022-08-16T03:12:56.428Z,18.10
2022-08-16T03:15:33.779Z,18.10
2022-08-16T03:18:12.520Z,18.10
2022-08-16T03:20:55.766Z,18.20
2022-08-16T03:23:35.990Z,18.20
2022-08-16T03:26:10.913Z,18.30
2022-08-16T03:28:44.400Z,18.20
2022-08-16T03:31:20.187Z,18.20
2022-08-16T03:33:53.873Z,18.30
2022-08-16T03:36:31.112Z,18.40
2022-08-16T03:39:10.731Z,18.20
2022-08-16T03:41:51.302Z,18.10
2022-08-16T03:44:44.646Z,17.90
2022-08-16T03:47:22.475Z,17.90
2022-08-16T03:49:58.473Z,17.80
2022-08-16T03:52:32.746Z,17.90
2022-08-16T03:55:10.555Z,17.80
2022-08-16T03:57:52.258Z,17.80
2022-08-16T04:00:40.822Z,17.80
2022-08-16T04:03:19.287Z,17.80
2022-08-16T04:05:55.060Z,17.70
2022-08-16T04:08:31.229Z,17.80
2022-08-16T04:11:07.956Z,17.80
2022-08-16T04:14:01.681Z,17.80
2022-08-16T04:16:40.097Z,17.80
2022-08-16T04:19:37.628Z,17.70
2022-08-16T04:22:19.655Z,17.60
2022-08-16T04:24:59.194Z,17.60
2022-08-16T04:27:36.728Z,17.60
2022-08-16T04:30:13.171Z,17.60
2022-08-16T04:33:07.411Z,17.60
2022-08-16T04:35:43.484Z,17.70
2022-08-16T04:38:23.096Z,17.60
2022-08-16T04:40:58.746Z,17.70
2022-08-16T04:43:33.512Z,17.60
2022-08-16T04:47:00.231Z,17.60
2022-08-16T04:49:02.390Z,17.60
2022-08-16T04:51:36.282Z,17.60
2022-08-16T04:54:10.380Z,17.70
2022-08-16T04:56:46.347Z,17.70
2022-08-16T04:59:22.135Z,17.80
2022-08-16T05:01:58.652Z,17.80
2022-08-16T05:04:33.542Z,17.90
2022-08-16T05:07:06.801Z,18.00
2022-08-16T05:09:59.332Z,18.10
2022-08-16T05:12:32.872Z,18.10
2022-08-16T05:15:08.861Z,18.10
2022-08-16T05:17:44.001Z,18.20
2022-08-16T05:20:35.119Z,18.30
2022-08-16T05:23:14.932Z,18.20
2022-08-16T05:25:49.200Z,18.30
2022-08-16T05:28:23.466Z,18.30
2022-08-16T05:31:10.729Z,18.30
2022-08-16T05:33:44.227Z,18.30
2022-08-16T05:36:34.039Z,18.30
2022-08-16T05:39:12.303Z,18.30
2022-08-16T05:41:49.076Z,18.30
2022-08-16T05:44:25.490Z,18.30
2022-08-16T05:47:02.526Z,18.30
2022-08-16T05:49:39.424Z,18.50
2022-08-16T05:52:20.641Z,18.50
2022-08-16T05:55:01.263Z,18.50
2022-08-16T05:57:38.926Z,18.60
2022-08-16T06:00:22.395Z,18.70
2022-08-16T06:02:57.801Z,18.80
2022-08-16T06:05:51.823Z,19.10
2022-08-16T06:08:31.755Z,19.30
2022-08-16T06:11:11.323Z,19.40
2022-08-16T06:13:49.341Z,19.50
2022-08-16T06:16:27.948Z,19.70
2022-08-16T06:19:05.124Z,19.90
2022-08-16T06:21:40.219Z,20.00
2022-08-16T06:24:53.953Z,20.20
2022-08-16T06:27:07.970Z,20.30
2022-08-16T06:29:41.254Z,20.40
2022-08-16T06:32:27.782Z,20.50
2022-08-16T06:35:02.303Z,20.60
2022-08-16T06:37:40.711Z,20.80
2022-08-16T06:40:19.514Z,20.90
2022-08-16T06:42:57.890Z,21.10
2022-08-16T06:45:43.231Z,21.20
2022-08-16T06:48:42.945Z,21.30
2022-08-16T06:51:16.980Z,21.50
2022-08-16T06:53:52.821Z,21.60
2022-08-16T06:56:26.181Z,21.70
2022-08-16T06:59:19.508Z,21.90
2022-08-16T07:02:00.578Z,22.10
2022-08-16T07:04:37.175Z,22.30
2022-08-16T07:07:24.856Z,22.40
2022-08-16T07:10:09.780Z,22.40
2022-08-16T07:13:03.237Z,22.50
2022-08-16T07:15:37.077Z,22.50
2022-08-16T07:18:24.884Z,22.60
2022-08-16T07:21:02.042Z,22.80
2022-08-16T07:23:39.177Z,22.90
2022-08-16T07:26:25.662Z,23.00
2022-08-16T07:29:02.751Z,23.20
2022-08-16T07:31:38.450Z,23.30
2022-08-16T07:34:16.649Z,23.30
2022-08-16T07:36:58.044Z,23.50
2022-08-16T07:39:42.834Z,23.60
2022-08-16T07:42:26.009Z,23.60
2022-08-16T07:45:02.829Z,23.70
2022-08-16T07:47:36.092Z,23.70
2022-08-16T07:50:56.076Z,23.70
2022-08-16T07:53:07.397Z,23.70
2022-08-16T07:55:45.743Z,23.40
2022-08-16T07:58:33.703Z,23.50
2022-08-16T08:01:14.982Z,23.40
2022-08-16T08:04:03.855Z,23.40
2022-08-16T08:06:42.157Z,23.50
2022-08-16T08:09:20.952Z,23.40
2022-08-16T08:12:00.620Z,23.50
2022-08-16T08:14:41.907Z,23.50
2022-08-16T08:17:19.702Z,23.50
2022-08-16T08:19:53.678Z,23.60
2022-08-16T08:22:28.730Z,23.60
2022-08-16T08:25:04.697Z,23.60
2022-08-16T08:27:39.665Z,23.70
2022-08-16T08:30:52.051Z,23.80
2022-08-16T08:33:12.566Z,24.00
2022-08-16T08:35:50.517Z,24.30
2022-08-16T08:38:45.944Z,24.60
2022-08-16T08:41:28.375Z,24.70
2022-08-16T08:44:28.050Z,24.90
2022-08-16T08:47:00.408Z,24.90
2022-08-16T08:49:46.482Z,24.80
2022-08-16T08:52:35.024Z,24.80
2022-08-16T08:55:14.904Z,24.80
2022-08-16T08:57:50.523Z,24.90
2022-08-16T09:00:30.380Z,24.90
2022-08-16T09:03:08.891Z,24.90
2022-08-16T09:05:51.252Z,25.00
2022-08-16T09:08:27.372Z,25.20
2022-08-16T09:11:15.881Z,25.40
2022-08-16T09:13:53.319Z,25.30
2022-08-16T09:16:57.688Z,25.40
2022-08-16T09:19:32.800Z,25.50
2022-08-16T09:22:07.287Z,25.60
2022-08-16T09:25:10.076Z,25.70
2022-08-16T09:27:56.428Z,25.80
2022-08-16T09:30:43.425Z,25.90
2022-08-16T09:33:18.285Z,26.00
2022-08-16T09:35:54.579Z,26.20
2022-08-16T09:38:31.987Z,26.30
2022-08-16T09:41:14.649Z,26.40
2022-08-16T09:45:12.446Z,26.60
2022-08-16T09:47:58.782Z,26.70
2022-08-16T09:50:37.179Z,26.60
2022-08-16T09:53:18.179Z,26.70
2022-08-16T09:55:56.841Z,26.80
2022-08-16T09:58:37.661Z,27.00
2022-08-16T10:01:28.544Z,27.10
2022-08-16T10:04:31.208Z,27.30
2022-08-16T10:43:03.411Z,28.00
2022-08-16T10:45:42.016Z,28.10
2022-08-16T11:32:33.588Z,28.40
2022-08-16T11:35:17.940Z,28.60
2022-08-16T11:38:47.315Z,28.70
2022-08-16T11:41:10.760Z,28.90
2022-08-16T11:43:43.777Z,28.80
2022-08-16T11:46:44.851Z,28.90
2022-08-16T11:49:13.609Z,28.80
2022-08-16T11:51:47.558Z,28.80
2022-08-16T11:54:23.490Z,28.90
2022-08-16T11:57:09.036Z,29.00
2022-08-16T11:59:42.559Z,29.10
2022-08-16T12:02:31.981Z,29.20
2022-08-16T12:05:08.934Z,29.40
2022-08-16T12:07:42.253Z,29.60
2022-08-16T12:10:19.006Z,29.80
2022-08-16T12:12:52.374Z,30.10
2022-08-16T12:15:26.635Z,30.20
2022-08-16T12:18:05.225Z,30.10
2022-08-16T12:20:43.509Z,30.20
2022-08-16T12:23:18.872Z,30.10
2022-08-16T12:25:53.158Z,30.00
2022-08-16T12:28:55.133Z,29.80
2022-08-16T12:31:25.762Z,29.90
2022-08-16T12:33:58.747Z,30.10
2022-08-16T12:36:32.019Z,30.30
2022-08-16T12:39:06.842Z,30.50
2022-08-16T12:41:45.044Z,30.50
2022-08-16T12:44:20.073Z,30.40
2022-08-16T12:47:12.386Z,30.30
2022-08-16T12:49:48.550Z,30.10
2022-08-16T12:52:33.752Z,30.00
2022-08-16T12:55:08.670Z,29.90
2022-08-16T12:57:42.022Z,29.80
2022-08-16T13:00:23.286Z,29.70
2022-08-16T13:03:02.570Z,29.50
2022-08-16T13:05:45.081Z,29.40
2022-08-16T13:08:30.579Z,29.20
2022-08-16T13:11:04.999Z,29.00
2022-08-16T13:13:40.799Z,28.80
2022-08-16T13:16:20.511Z,28.60
2022-08-16T13:18:57.739Z,28.40
2022-08-16T13:21:30.944Z,28.40
2022-08-16T13:24:04.619Z,28.30
2022-08-16T13:26:38.830Z,28.20
2022-08-16T13:29:12.714Z,28.20
2022-08-16T13:31:47.427Z,28.10
2022-08-16T13:34:20.731Z,28.10
2022-08-16T13:36:55.016Z,28.10
2022-08-16T13:39:32.080Z,27.90
2022-08-16T13:42:10.671Z,27.90
2022-08-16T13:44:56.608Z,27.80
2022-08-16T13:47:32.259Z,27.70
2022-08-16T13:50:08.078Z,27.60
2022-08-16T13:52:43.990Z,27.60
2022-08-16T13:55:18.341Z,27.60
2022-08-16T13:58:27.602Z,27.60
2022-08-16T14:00:45.724Z,27.60
2022-08-16T14:03:18.818Z,27.60
2022-08-16T14:05:53.782Z,27.60
2022-08-16T14:08:27.450Z,27.60
2022-08-16T14:11:00.734Z,27.70
2022-08-16T14:13:34.920Z,27.80
2022-08-16T14:16:12.687Z,27.80
2022-08-16T14:18:57.363Z,27.80
2022-08-16T14:21:35.169Z,27.80
2022-08-16T14:24:22.443Z,27.80
2022-08-16T14:27:04.428Z,27.80
2022-08-16T14:29:38.396Z,27.80
2022-08-16T14:32:13.097Z,27.70
2022-08-16T14:35:02.245Z,27.80
2022-08-16T14:37:37.030Z,27.80
2022-08-16T14:40:16.418Z,27.80
2022-08-16T14:42:50.546Z,27.80
2022-08-16T14:45:28.638Z,27.80
2022-08-16T14:48:04.710Z,27.70
2022-08-16T14:50:46.755Z,27.70
2022-08-16T14:53:34.772Z,27.70
2022-08-16T14:56:17.520Z,27.60
2022-08-16T14:59:06.778Z,27.60
2022-08-16T15:01:59.132Z,27.60
2022-08-16T15:04:39.791Z,27.60
2022-08-16T15:07:22.106Z,27.60
2022-08-16T15:10:00.637Z,27.60
2022-08-16T15:12:36.083Z,27.60
2022-08-16T15:15:16.553Z,27.50
2022-08-16T15:17:54.500Z,27.50
2022-08-16T15:20:32.746Z,27.50
2022-08-16T15:23:08.341Z,27.50
2022-08-16T15:25:47.355Z,27.50
2022-08-16T15:28:39.127Z,27.40
2022-08-16T15:31:15.571Z,27.40
2022-08-16T15:33:55.108Z,27.40
2022-08-16T15:36:31.352Z,27.40
2022-08-16T15:39:30.472Z,27.30
2022-08-16T15:42:01.085Z,27.30
2022-08-16T15:44:51.914Z,27.30
2022-08-16T15:47:27.614Z,27.30
2022-08-16T15:50:02.623Z,27.30
2022-08-16T15:52:37.771Z,27.20
2022-08-16T15:55:23.528Z,27.20
2022-08-16T15:57:57.326Z,27.10
2022-08-16T16:00:31.205Z,27.10
2022-08-16T16:03:17.844Z,27.10
2022-08-16T16:05:53.543Z,27.00
2022-08-16T16:08:28.170Z,27.00
2022-08-16T16:11:04.874Z,26.90
2022-08-16T16:13:39.223Z,26.90
2022-08-16T16:16:19.626Z,26.90
2022-08-16T16:18:53.743Z,26.90
2022-08-16T16:21:26.790Z,26.80
2022-08-16T16:24:23.546Z,26.80
2022-08-16T16:27:03.780Z,26.90
2022-08-16T16:29:40.308Z,26.80
2022-08-16T16:32:14.164Z,26.90
2022-08-16T16:34:48.731Z,26.90
2022-08-16T16:37:23.125Z,26.90
2022-08-16T16:39:56.899Z,26.90
2022-08-16T16:42:35.440Z,26.90
2022-08-16T16:45:18.511Z,26.90
2022-08-16T16:47:51.675Z,26.90
2022-08-16T16:50:29.206Z,26.90
2022-08-16T16:53:02.869Z,26.80
2022-08-16T16:55:52.441Z,26.80
2022-08-16T16:58:43.920Z,26.80
2022-08-16T17:01:56.642Z,26.80
2022-08-16T17:04:31.587Z,26.70
2022-08-16T17:07:07.741Z,26.70
2022-08-16T17:09:46.803Z,26.70
2022-08-16T17:12:24.974Z,26.60
2022-08-16T17:15:14.952Z,26.60
2022-08-16T17:17:59.738Z,26.50
2022-08-16T17:20:35.334Z,26.50
2022-08-16T17:23:08.684Z,26.40
2022-08-16T17:25:42.563Z,26.40
2022-08-16T17:28:59.885Z,26.40
2022-08-16T17:31:09.746Z,26.40
2022-08-16T17:33:54.820Z,26.40
2022-08-16T17:36:35.830Z,26.40
2022-08-16T17:39:09.886Z,26.30
2022-08-16T17:41:42.903Z,26.30
2022-08-16T17:44:19.091Z,26.30
2022-08-16T17:46:53.126Z,26.30
2022-08-16T17:49:26.493Z,26.20
2022-08-16T17:51:59.696Z,26.20
2022-08-16T17:54:32.750Z,26.20
2022-08-16T17:57:06.620Z,26.20
2022-08-16T17:59:41.345Z,26.10
2022-08-16T18:02:43.550Z,26.10
2022-08-16T18:05:08.008Z,26.10
2022-08-16T18:07:42.568Z,26.10
2022-08-16T18:10:21.241Z,26.10
2022-08-16T18:13:07.840Z,26.10
2022-08-16T18:15:42.770Z,26.10
2022-08-16T18:18:16.236Z,26.10
2022-08-16T18:21:08.953Z,26.10
2022-08-16T18:23:42.930Z,26.10
2022-08-16T18:26:16.569Z,26.10
2022-08-16T18:28:50.481Z,26.00
2022-08-16T18:31:23.693Z,26.00
2022-08-16T18:33:56.964Z,26.00
2022-08-16T18:36:30.959Z,25.90
2022-08-16T18:39:04.407Z,25.90
2022-08-16T18:41:38.582Z,25.80
2022-08-16T18:44:25.076Z,25.70
2022-08-16T18:47:00.022Z,25.60
2022-08-16T18:49:33.786Z,25.50
2022-08-16T18:52:06.909Z,25.50
2022-08-16T18:55:02.851Z,25.30
2022-08-16T18:57:33.545Z,25.30
2022-08-16T19:00:10.876Z,25.20
2022-08-16T19:02:58.989Z,25.10
2022-08-16T19:05:36.125Z,25.10
2022-08-16T19:08:11.107Z,25.00
2022-08-16T19:10:44.357Z,24.90
2022-08-16T19:13:20.812Z,24.80
2022-08-16T19:15:57.018Z,24.80
2022-08-16T19:18:36.807Z,24.70
2022-08-16T19:21:14.752Z,24.60
2022-08-16T19:23:48.818Z,24.60
2022-08-16T19:26:26.560Z,24.50
2022-08-16T19:29:03.628Z,24.40
2022-08-16T19:31:41.488Z,24.30
2022-08-16T19:34:16.267Z,24.20
2022-08-16T19:36:49.268Z,24.20
2022-08-16T19:39:23.506Z,24.10
2022-08-16T19:41:59.049Z,24.00
2022-08-16T19:44:32.027Z,23.90
2022-08-16T19:47:05.044Z,23.80
2022-08-16T19:49:38.917Z,23.70
2022-08-16T19:52:21.874Z,23.70
2022-08-16T19:54:59.508Z,23.60
2022-08-16T19:57:32.960Z,23.60
2022-08-16T20:00:14.540Z,23.60
2022-08-16T20:02:54.239Z,23.50
2022-08-16T20:05:30.341Z,23.50
2022-08-16T20:08:04.625Z,23.40
2022-08-16T20:10:46.222Z,23.40
2022-08-16T20:13:25.502Z,23.40
2022-08-16T20:16:01.150Z,23.30
2022-08-16T20:18:39.749Z,23.30
2022-08-16T20:21:15.521Z,23.30
2022-08-16T20:23:51.681Z,23.20
2022-08-16T20:26:31.633Z,23.20
2022-08-16T20:29:08.070Z,23.20
2022-08-16T20:31:42.440Z,23.10
2022-08-16T20:34:16.009Z,23.00
2022-08-16T20:36:48.973Z,23.00
2022-08-16T20:39:24.147Z,23.00
2022-08-16T20:41:59.427Z,22.90
2022-08-16T20:44:32.486Z,22.80
2022-08-16T20:47:07.104Z,22.80
2022-08-16T20:49:40.302Z,22.80
2022-08-16T20:52:16.852Z,22.80
2022-08-16T20:54:51.148Z,22.70
2022-08-16T20:57:24.441Z,22.70
2022-08-16T20:59:57.451Z,22.60
2022-08-16T21:02:30.490Z,22.60
2022-08-16T21:05:06.013Z,22.60
2022-08-16T21:07:39.084Z,22.60
2022-08-16T21:10:12.945Z,22.50
2022-08-16T21:12:54.644Z,22.50
2022-08-16T21:15:28.157Z,22.50
2022-08-16T21:18:01.350Z,22.50
2022-08-16T21:20:34.250Z,22.40
2022-08-16T21:23:10.056Z,22.40
2022-08-16T21:25:53.759Z,22.30
2022-08-16T21:28:39.086Z,22.30
2022-08-16T21:31:17.419Z,22.30
2022-08-16T21:33:55.114Z,22.30
2022-08-16T21:36:35.502Z,22.20
2022-08-16T21:39:09.165Z,22.20
2022-08-16T21:41:42.140Z,22.10
2022-08-16T21:44:15.076Z,22.10
2022-08-16T21:46:47.937Z,22.10
2022-08-16T21:49:21.211Z,22.00
2022-08-16T21:51:54.263Z,22.00
2022-08-16T21:54:27.536Z,21.90
2022-08-16T21:57:00.583Z,21.90
2022-08-16T21:59:33.549Z,21.90
2022-08-16T22:02:07.012Z,21.90
2022-08-16T22:04:40.049Z,21.80
2022-08-16T22:07:15.474Z,21.80
2022-08-16T22:09:50.457Z,21.80
2022-08-16T22:12:27.337Z,21.60
2022-08-16T22:15:00.206Z,21.60
2022-08-16T22:17:33.181Z,21.50
2022-08-16T22:20:10.631Z,21.50
2022-08-16T22:22:43.702Z,21.40
2022-08-16T22:25:17.645Z,21.30
2022-08-16T22:31:06.890Z,21.30
2022-08-16T22:33:40.616Z,21.30
2022-08-16T22:36:13.576Z,21.30
2022-08-16T22:38:56.298Z,21.30
2022-08-16T22:41:32.290Z,21.20
2022-08-16T22:44:07.150Z,21.20
2022-08-16T22:46:40.612Z,21.20
2022-08-16T22:49:14.585Z,21.30
2022-08-16T22:51:50.980Z,21.30
2022-08-16T22:54:45.917Z,21.30
2022-08-16T22:57:21.679Z,21.30
2022-08-16T22:59:54.660Z,21.30
2022-08-16T23:02:28.417Z,21.30
2022-08-16T23:05:01.654Z,21.20
2022-08-16T23:07:35.662Z,21.20
2022-08-16T23:10:09.355Z,21.10
2022-08-16T23:12:55.451Z,21.10
2022-08-16T23:15:31.346Z,21.10
2022-08-16T23:18:06.586Z,21.10
2022-08-16T23:20:40.909Z,21.10
2022-08-16T23:23:20.765Z,21.10
2022-08-16T23:25:57.902Z,21.10
2022-08-16T23:28:31.739Z,21.10
2022-08-16T23:31:04.983Z,21.10
2022-08-16T23:33:38.380Z,21.10
2022-08-16T23:36:11.541Z,21.10
2022-08-16T23:38:44.526Z,21.00
2022-08-16T23:41:17.718Z,21.00
2022-08-16T23:43:50.746Z,21.00
2022-08-16T23:46:23.888Z,20.90
2022-08-16T23:49:57.857Z,20.90
2022-08-16T23:51:50.217Z,20.90
2022-08-16T23:54:23.107Z,20.90
2022-08-16T23:56:56.053Z,20.80
2022-08-16T23:59:29.101Z,20.80
